createdAt,value
2019-02-14T00:00:20.528Z,12.17
2019-02-14T00:03:21.856Z,13.07
2019-02-14T00:06:27.018Z,11.97
2019-02-14T00:09:27.947Z,13.53
2019-02-14T00:12:29.593Z,11.83
2019-02-14T00:15:30.544Z,11.60
2019-02-14T00:18:31.387Z,12.17
2019-02-14T00:21:33.103Z,12.70
2019-02-14T00:24:34.167Z,12.10
2019-02-14T00:27:35.955Z,12.23
2019-02-14T00:30:35.771Z,12.60
2019-02-14T00:33:36.707Z,12.03
2019-02-14T00:36:38.675Z,11.77
2019-02-14T00:39:39.558Z,11.60
2019-02-14T00:42:41.296Z,11.17
2019-02-14T00:45:42.553Z,11.23
2019-02-14T00:48:44.098Z,11.43
2019-02-14T00:51:45.180Z,10.80
2019-02-14T00:54:45.974Z,10.63
2019-02-14T01:00:31.196Z,11.50
2019-02-14T01:03:32.959Z,11.13
2019-02-14T01:06:34.873Z,10.60
2019-02-14T01:09:34.527Z,11.80
2019-02-14T01:12:36.397Z,11.47
2019-02-14T01:15:38.025Z,10.77
2019-02-14T01:18:39.568Z,10.13
2019-02-14T01:21:43.752Z,11.30
2019-02-14T01:24:45.261Z,10.90
2019-02-14T01:27:46.159Z,10.33
2019-02-14T01:30:46.702Z,10.20
2019-02-14T01:33:53.524Z,11.00
2019-02-14T01:36:55.393Z,10.37
2019-02-14T01:39:57.421Z,10.13
2019-02-14T01:46:04.642Z,10.47
2019-02-14T01:51:49.471Z,10.73
2019-02-14T01:54:51.118Z,11.37
2019-02-14T01:57:52.437Z,9.77
2019-02-14T02:00:53.424Z,11.00
2019-02-14T02:06:47.998Z,11.23
2019-02-14T02:09:50.083Z,10.83
2019-02-14T02:12:49.659Z,10.40
2019-02-14T02:15:50.986Z,10.50
2019-02-14T02:18:51.980Z,10.20
2019-02-14T02:21:52.842Z,10.23
2019-02-14T02:24:54.528Z,11.00
2019-02-14T02:31:05.947Z,10.67
2019-02-14T02:34:06.843Z,11.00
2019-02-14T02:37:07.747Z,10.80
2019-02-14T02:43:47.041Z,11.27
2019-02-14T02:46:48.425Z,11.63
2019-02-14T02:49:49.717Z,10.63
2019-02-14T02:52:51.038Z,10.37
2019-02-14T02:58:56.354Z,12.57
2019-02-14T03:04:41.934Z,11.60
2019-02-14T03:07:47.401Z,12.07
2019-02-14T03:10:48.422Z,11.00
2019-02-14T03:13:49.243Z,11.53
2019-02-14T03:20:16.417Z,10.03
2019-02-14T03:26:40.015Z,11.07
2019-02-14T03:29:41.111Z,12.07
2019-02-14T03:32:42.749Z,14.83
2019-02-14T03:38:54.147Z,13.73
2019-02-14T03:45:05.425Z,12.20
2019-02-14T03:48:07.761Z,11.33
2019-02-14T03:51:08.727Z,11.00
2019-02-14T03:54:10.230Z,11.47
2019-02-14T03:57:11.341Z,11.13
2019-02-14T04:00:14.970Z,11.80
2019-02-14T04:03:15.444Z,11.37
2019-02-14T04:06:16.106Z,10.60
2019-02-14T04:09:17.411Z,10.37
2019-02-14T04:12:18.460Z,9.93
2019-02-14T04:15:20.774Z,10.70
2019-02-14T04:18:22.304Z,10.77
2019-02-14T04:21:23.120Z,10.37
2019-02-14T04:24:24.726Z,10.67
2019-02-14T04:27:26.013Z,11.17
2019-02-14T04:30:26.907Z,10.73
2019-02-14T04:33:28.331Z,10.97
2019-02-14T04:36:35.787Z,11.10
2019-02-14T04:39:32.949Z,10.60
2019-02-14T04:42:33.706Z,11.50
2019-02-14T04:45:34.223Z,10.80
2019-02-14T04:48:35.761Z,10.23
2019-02-14T04:51:36.655Z,10.67
2019-02-14T04:54:38.090Z,10.97
2019-02-14T04:57:38.927Z,10.40
2019-02-14T05:00:40.468Z,10.60
2019-02-14T05:03:42.006Z,10.67
2019-02-14T05:06:44.323Z,10.40
2019-02-14T05:09:45.717Z,10.23
2019-02-14T05:12:47.123Z,13.45
2019-02-14T05:15:48.523Z,11.20
2019-02-14T05:18:50.003Z,10.77
2019-02-14T05:21:50.790Z,10.20
2019-02-14T05:24:52.499Z,9.47
2019-02-14T05:27:53.710Z,10.27
2019-02-14T05:30:55.593Z,10.20
2019-02-14T05:33:56.178Z,19.73
2019-02-14T05:36:56.731Z,16.20
2019-02-14T05:39:59.225Z,26.65
2019-02-14T05:42:59.943Z,18.50
2019-02-14T05:46:05.009Z,20.50
2019-02-14T05:49:05.765Z,13.17
2019-02-14T05:52:06.357Z,12.77
2019-02-14T05:55:07.534Z,11.00
2019-02-14T06:01:13.778Z,18.10
2019-02-14T06:04:15.166Z,15.73
2019-02-14T06:07:16.379Z,12.83
2019-02-14T06:10:18.103Z,10.00
2019-02-14T06:13:19.367Z,10.80
2019-02-14T06:16:20.845Z,10.23
2019-02-14T06:22:28.157Z,11.07
2019-02-14T06:25:29.767Z,11.60
2019-02-14T06:28:30.706Z,10.13
2019-02-14T06:31:32.266Z,10.27
2019-02-14T06:34:33.107Z,9.60
2019-02-14T06:37:33.826Z,9.17
2019-02-14T06:40:35.591Z,9.67
2019-02-14T06:43:36.103Z,8.97
2019-02-14T06:46:37.591Z,8.70
2019-02-14T06:49:38.396Z,8.80
2019-02-14T06:52:40.381Z,8.70
2019-02-14T06:55:45.982Z,8.67
2019-02-14T06:58:46.779Z,8.90
2019-02-14T07:01:49.040Z,9.03
2019-02-14T07:05:09.083Z,9.40
2019-02-14T07:08:09.941Z,8.60
2019-02-14T07:11:11.401Z,8.73
2019-02-14T07:14:12.455Z,9.03
2019-02-14T07:17:14.066Z,8.83
2019-02-14T07:20:15.135Z,8.83
2019-02-14T07:23:15.822Z,8.80
2019-02-14T07:26:17.135Z,8.97
2019-02-14T07:29:18.494Z,8.73
2019-02-14T07:32:26.291Z,8.97
2019-02-14T07:35:27.230Z,9.13
2019-02-14T07:38:28.715Z,9.03
2019-02-14T07:41:31.086Z,9.13
2019-02-14T07:44:31.822Z,8.63
2019-02-14T07:47:34.452Z,8.23
2019-02-14T07:50:35.170Z,8.13
2019-02-14T07:53:35.780Z,8.50
2019-02-14T07:56:37.430Z,8.27
2019-02-14T07:59:38.054Z,8.60
2019-02-14T08:02:39.416Z,8.57
2019-02-14T08:05:39.144Z,8.33
2019-02-14T08:08:39.996Z,8.83
2019-02-14T08:11:41.326Z,8.47
2019-02-14T08:14:42.328Z,8.10
2019-02-14T08:17:44.021Z,8.00
2019-02-14T08:20:45.069Z,8.47
2019-02-14T08:23:46.058Z,8.03
2019-02-14T08:26:47.670Z,7.97
2019-02-14T08:29:48.679Z,8.43
2019-02-14T08:35:34.080Z,7.77
2019-02-14T08:38:35.378Z,8.17
2019-02-14T08:41:36.109Z,7.93
2019-02-14T08:44:36.382Z,8.20
2019-02-14T08:47:38.705Z,8.17
2019-02-14T08:53:49.551Z,8.43
2019-02-14T08:56:51.378Z,7.57
2019-02-14T08:59:52.006Z,8.80
2019-02-14T09:02:53.506Z,7.90
2019-02-14T09:05:57.451Z,8.33
2019-02-14T09:12:03.831Z,7.47
2019-02-14T09:15:03.526Z,7.90
2019-02-14T09:18:05.213Z,8.23
2019-02-14T09:21:06.286Z,6.73
2019-02-14T09:24:07.091Z,7.50
2019-02-14T09:27:07.803Z,7.03
2019-02-14T09:33:18.932Z,6.40
2019-02-14T09:39:30.291Z,6.43
2019-02-14T09:42:30.817Z,7.00
2019-02-14T09:45:31.813Z,6.83
2019-02-14T09:48:33.397Z,7.53
2019-02-14T09:51:34.276Z,7.23
2019-02-14T09:54:36.011Z,7.37
2019-02-14T09:57:38.364Z,6.90
2019-02-14T10:00:39.641Z,7.80
2019-02-14T10:03:41.151Z,7.83
2019-02-14T10:06:39.868Z,7.20
2019-02-14T10:09:41.297Z,7.90
2019-02-14T10:12:42.685Z,6.57
2019-02-14T10:15:42.350Z,7.13
2019-02-14T10:18:44.053Z,7.27
2019-02-14T10:24:55.380Z,7.20
2019-02-14T10:27:56.952Z,6.30
2019-02-14T10:30:57.891Z,7.07
2019-02-14T10:33:59.499Z,6.73
2019-02-14T10:37:00.636Z,6.80
2019-02-14T10:40:06.150Z,6.03
2019-02-14T10:43:07.893Z,7.23
2019-02-14T10:46:08.475Z,7.13
2019-02-14T10:51:53.427Z,6.77
2019-02-14T10:54:55.540Z,6.33
2019-02-14T10:57:56.658Z,6.73
2019-02-14T11:04:03.311Z,7.27
2019-02-14T11:07:04.626Z,5.70
2019-02-14T11:12:58.814Z,6.50
2019-02-14T11:19:24.989Z,5.60
2019-02-14T11:22:26.110Z,5.70
2019-02-14T11:25:27.792Z,5.80
2019-02-14T11:28:28.390Z,5.37
2019-02-14T11:31:32.087Z,5.50
2019-02-14T11:34:33.786Z,4.90
2019-02-14T11:37:34.831Z,4.60
2019-02-14T11:40:34.747Z,4.83
2019-02-14T11:43:33.667Z,4.40
2019-02-14T11:46:34.364Z,4.60
2019-02-14T11:49:34.883Z,5.03
2019-02-14T11:52:36.019Z,4.87
2019-02-14T11:55:42.765Z,4.60
2019-02-14T11:58:44.627Z,4.53
2019-02-14T12:01:54.979Z,4.90
2019-02-14T12:04:49.983Z,4.97
2019-02-14T12:07:50.953Z,4.60
2019-02-14T12:10:52.618Z,4.53
2019-02-14T12:13:53.638Z,4.37
2019-02-14T12:17:00.358Z,4.87
2019-02-14T12:20:01.867Z,4.80
2019-02-14T12:23:02.780Z,4.60
2019-02-14T12:26:05.791Z,4.27
2019-02-14T12:29:07.110Z,4.50
2019-02-14T12:32:07.029Z,4.50
2019-02-14T12:35:07.983Z,4.73
2019-02-14T12:38:09.734Z,4.97
2019-02-14T12:41:11.669Z,4.93
2019-02-14T12:44:12.839Z,4.63
2019-02-14T12:47:14.415Z,3.90
2019-02-14T12:50:20.097Z,4.37
2019-02-14T12:53:21.875Z,4.00
2019-02-14T12:56:22.798Z,3.63
2019-02-14T12:59:27.204Z,3.90
2019-02-14T13:02:28.850Z,3.30
2019-02-14T13:05:29.464Z,3.20
2019-02-14T13:08:31.118Z,3.40
2019-02-14T13:11:31.988Z,3.47
2019-02-14T13:14:31.835Z,3.47
2019-02-14T13:17:33.354Z,3.60
2019-02-14T13:20:34.535Z,3.60
2019-02-14T13:23:36.155Z,3.03
2019-02-14T13:26:36.899Z,1.90
2019-02-14T13:29:38.654Z,2.00
2019-02-14T13:32:39.467Z,2.20
2019-02-14T13:35:40.143Z,2.57
2019-02-14T13:38:41.538Z,2.40
2019-02-14T13:41:42.534Z,2.53
2019-02-14T13:44:44.007Z,2.73
2019-02-14T13:47:45.032Z,2.60
2019-02-14T13:50:46.761Z,2.23
2019-02-14T13:53:48.991Z,2.60
2019-02-14T13:56:54.129Z,2.70
2019-02-14T13:59:53.451Z,2.80
2019-02-14T14:02:54.452Z,3.10
2019-02-14T14:05:56.027Z,3.37
2019-02-14T14:08:56.549Z,3.00
2019-02-14T14:11:57.235Z,3.13
2019-02-14T14:14:58.711Z,3.70
2019-02-14T14:17:59.834Z,3.37
2019-02-14T14:21:01.371Z,3.43
2019-02-14T14:24:02.316Z,3.10
2019-02-14T14:27:03.738Z,3.63
2019-02-14T14:30:04.922Z,3.07
2019-02-14T14:33:06.198Z,3.07
2019-02-14T14:43:03.966Z,3.20
2019-02-14T14:46:30.391Z,2.80
2019-02-14T14:55:53.428Z,2.40
2019-02-14T14:58:54.671Z,2.87
2019-02-14T15:01:56.499Z,2.50
2019-02-14T15:04:57.663Z,2.50
2019-02-14T15:07:59.175Z,2.70
2019-02-14T15:10:59.983Z,3.40
2019-02-14T15:14:01.304Z,2.60
2019-02-14T15:17:02.940Z,2.90
2019-02-14T15:20:03.871Z,3.07
2019-02-14T15:23:05.242Z,2.47
2019-02-14T15:29:31.778Z,2.40
2019-02-14T15:32:33.478Z,2.80
2019-02-14T15:35:34.856Z,2.67
2019-02-14T15:41:35.890Z,2.60
2019-02-14T15:44:37.004Z,2.20
2019-02-14T15:47:38.583Z,2.30
2019-02-14T15:50:39.730Z,2.13
2019-02-14T15:53:41.816Z,2.03
2019-02-14T15:56:43.689Z,2.30
2019-02-14T15:59:45.486Z,1.83
2019-02-14T16:05:30.681Z,2.00
2019-02-14T16:08:32.142Z,1.90
2019-02-14T16:11:34.006Z,2.17
2019-02-14T16:14:35.799Z,1.90
2019-02-14T16:17:37.478Z,2.13
2019-02-14T16:20:39.871Z,2.50
2019-02-14T16:23:41.863Z,2.10
2019-02-14T16:26:42.887Z,2.03
2019-02-14T16:33:08.819Z,1.70
2019-02-14T16:39:20.809Z,1.80
2019-02-14T16:42:24.158Z,1.90
2019-02-14T16:48:31.432Z,2.50
2019-02-14T16:54:41.619Z,2.97
2019-02-14T16:57:43.475Z,3.80
2019-02-14T17:00:44.290Z,2.83
2019-02-14T17:03:46.965Z,3.37
2019-02-14T17:09:53.339Z,2.73
2019-02-14T17:12:54.266Z,2.37
2019-02-14T17:15:55.532Z,2.13
2019-02-14T17:18:56.901Z,3.07
2019-02-14T17:21:57.946Z,2.80
2019-02-14T17:24:59.856Z,2.90
2019-02-14T17:28:00.896Z,2.57
2019-02-14T17:31:01.647Z,3.03
2019-02-14T17:34:03.010Z,3.03
2019-02-14T17:37:03.849Z,2.80
2019-02-14T17:40:05.414Z,2.67
2019-02-14T17:43:06.300Z,2.80
2019-02-14T17:46:08.082Z,2.87
2019-02-14T17:49:14.926Z,3.22
2019-02-14T17:52:15.751Z,2.80
2019-02-14T17:55:17.534Z,2.60
2019-02-14T17:58:18.460Z,2.80
2019-02-14T18:01:20.090Z,3.13
2019-02-14T18:10:45.175Z,2.47
2019-02-14T18:13:44.783Z,2.70
2019-02-14T18:16:46.554Z,2.33
2019-02-14T18:23:06.040Z,2.57
2019-02-14T18:26:07.895Z,2.70
2019-02-14T18:29:09.166Z,2.30
2019-02-14T18:32:11.087Z,2.20
2019-02-14T18:35:12.494Z,2.30
2019-02-14T18:41:25.311Z,2.47
2019-02-14T18:44:26.826Z,2.20
2019-02-14T18:50:20.206Z,2.07
2019-02-14T18:56:59.991Z,2.40
2019-02-14T19:00:00.728Z,2.60
2019-02-14T19:03:02.345Z,2.33
2019-02-14T19:09:11.899Z,2.77
2019-02-14T19:12:16.547Z,2.30
2019-02-14T19:15:17.802Z,2.27
2019-02-14T19:18:20.334Z,2.17
2019-02-14T19:21:21.246Z,2.53
2019-02-14T19:24:27.909Z,3.10
2019-02-14T19:27:34.697Z,3.20
2019-02-14T19:30:42.250Z,3.10
2019-02-14T19:33:43.905Z,2.67
2019-02-14T19:36:45.080Z,2.80
2019-02-14T19:39:46.854Z,2.77
2019-02-14T19:42:48.131Z,2.53
2019-02-14T19:45:49.698Z,2.87
2019-02-14T19:48:56.522Z,3.00
2019-02-14T19:51:57.198Z,3.10
2019-02-14T19:54:58.797Z,2.97
2019-02-14T19:57:59.638Z,3.50
2019-02-14T20:01:01.278Z,3.40
2019-02-14T20:04:02.467Z,3.10
2019-02-14T20:07:03.374Z,3.20
2019-02-14T20:10:05.171Z,3.00
2019-02-14T20:13:06.098Z,3.50
2019-02-14T20:16:13.092Z,3.33
2019-02-14T20:19:14.582Z,3.90
2019-02-14T20:22:34.347Z,3.70
2019-02-14T20:28:27.481Z,3.63
2019-02-14T20:31:29.130Z,3.63
2019-02-14T20:34:30.334Z,3.70
2019-02-14T20:40:54.620Z,4.55
2019-02-14T20:43:55.138Z,4.30
2019-02-14T20:46:56.829Z,3.70
2019-02-14T20:49:57.649Z,3.80
2019-02-14T20:52:58.499Z,4.10
2019-02-14T20:58:54.470Z,3.67
2019-02-14T21:01:57.535Z,4.10
2019-02-14T21:04:58.639Z,4.27
2019-02-14T21:08:00.066Z,4.73
2019-02-14T21:11:02.073Z,4.50
2019-02-14T21:14:03.171Z,4.27
2019-02-14T21:17:04.942Z,4.40
2019-02-14T21:20:05.843Z,3.60
2019-02-14T21:23:07.705Z,4.37
2019-02-14T21:29:51.726Z,4.10
2019-02-14T21:32:53.634Z,4.60
2019-02-14T21:35:54.410Z,4.10
2019-02-14T21:38:55.986Z,3.80
2019-02-14T21:42:17.268Z,3.97
2019-02-14T21:45:02.171Z,3.67
2019-02-14T21:48:04.730Z,3.50
2019-02-14T21:54:30.011Z,3.90
2019-02-14T21:57:31.178Z,3.33
2019-02-14T22:00:31.868Z,3.53
2019-02-14T22:03:38.295Z,3.70
2019-02-14T22:06:37.270Z,3.70
2019-02-14T22:09:38.988Z,3.60
2019-02-14T22:12:42.263Z,3.40
2019-02-14T22:18:49.160Z,3.43
2019-02-14T22:21:50.030Z,3.40
2019-02-14T22:24:51.934Z,3.33
2019-02-14T22:27:52.995Z,3.40
2019-02-14T22:30:53.947Z,3.43
2019-02-14T22:33:55.351Z,3.17
2019-02-14T22:36:56.248Z,3.70
2019-02-14T22:39:57.622Z,3.50
2019-02-14T22:42:58.194Z,3.27
2019-02-14T22:45:59.963Z,3.67
2019-02-14T22:49:00.831Z,3.53
2019-02-14T22:52:02.363Z,3.80
2019-02-14T22:55:04.545Z,3.83
2019-02-14T22:58:05.723Z,4.10
2019-02-14T23:01:07.218Z,4.33
2019-02-14T23:04:08.266Z,4.20
2019-02-14T23:07:10.531Z,4.00
2019-02-14T23:10:11.602Z,3.80
2019-02-14T23:13:12.497Z,4.60
2019-02-14T23:16:14.117Z,4.10
2019-02-14T23:19:14.768Z,4.40
2019-02-14T23:25:00.674Z,4.17
2019-02-14T23:28:02.574Z,4.30
2019-02-14T23:31:03.634Z,3.60
2019-02-14T23:34:04.591Z,4.10
2019-02-14T23:37:07.113Z,4.00
2019-02-14T23:40:08.227Z,4.30
2019-02-14T23:43:09.895Z,4.60
2019-02-14T23:46:10.818Z,4.07
2019-02-14T23:49:13.329Z,3.53
2019-02-14T23:52:14.119Z,4.03
2019-02-14T23:55:15.065Z,4.10
2019-02-14T23:58:16.790Z,4.37
